Time;durP1;ratioP1;P1;durP2;ratioP2;P2;SDS_P1;SDS_P2;PMS_P1;PMS_P2;Temp;Humidity;BMP_temperature;BMP_pressure;BME280_temperature;BME280_humidity;BME280_pressure;Samples;Min_cycle;Max_cycle;Signal;HPM_P1;HPM_P2
2021/12/18 00:01:02;;;;;;;16.55;8.10;;;;;;;7.24;93.71;103974.44;5036244;22;21114;-89
2021/12/18 00:03:27;;;;;;;14.45;6.55;;;;;;;7.21;93.41;103971.75;5034877;23;20054;-78
2021/12/18 00:05:52;;;;;;;14.27;7.15;;;;;;;7.20;93.58;103972.66;4979538;28;20030;-81
2021/12/18 00:08:18;;;;;;;13.75;7.00;;;;;;;7.20;93.48;103971.78;4985710;28;20065;-79
2021/12/18 00:10:45;;;;;;;16.38;7.40;;;;;;;7.19;93.19;103968.16;4985032;28;20026;-78
2021/12/18 00:13:11;;;;;;;12.95;6.28;;;;;;;7.19;93.22;103962.75;4989580;28;20109;-77
2021/12/18 00:15:36;;;;;;;13.07;5.90;;;;;;;7.19;93.27;103960.03;4977808;28;20486;-79
2021/12/18 00:18:02;;;;;;;11.65;5.35;;;;;;;7.20;92.80;103969.97;4981723;28;20370;-81
2021/12/18 00:20:28;;;;;;;14.27;5.85;;;;;;;7.20;92.61;103960.94;4986311;28;20437;-82
2021/12/18 00:22:53;;;;;;;11.55;5.82;;;;;;;7.20;92.95;103960.94;4985100;28;20376;-77
2021/12/18 00:25:18;;;;;;;13.55;5.90;;;;;;;7.18;92.88;103957.34;4982363;28;20029;-78
2021/12/18 00:27:44;;;;;;;12.80;6.43;;;;;;;7.17;93.11;103956.44;4984744;28;20027;-78
2021/12/18 00:30:10;;;;;;;14.60;6.18;;;;;;;7.19;93.44;103953.75;4986490;28;20018;-76
2021/12/18 00:32:35;;;;;;;14.82;6.65;;;;;;;7.17;93.61;103961.84;4985417;28;20029;-75
2021/12/18 00:35:01;;;;;;;15.25;6.55;;;;;;;7.14;93.08;103951.06;4974398;28;20035;-76
2021/12/18 00:37:26;;;;;;;13.77;6.97;;;;;;;7.12;93.59;103942.94;4977004;28;20117;-76
2021/12/18 00:39:57;;;;;;;14.32;7.13;;;;;;;7.11;93.81;103942.97;4982030;28;20038;-73
2021/12/18 00:45:01;;;;;;;10.93;5.72;;;;;;;7.10;93.13;103944.78;4977261;28;20034;-78
2021/12/18 00:47:26;;;;;;;11.75;5.05;;;;;;;7.08;92.81;103942.97;4985571;28;20030;-75
2021/12/18 00:49:51;;;;;;;10.60;5.00;;;;;;;7.07;92.73;103933.06;4987825;28;20106;-76
2021/12/18 00:52:16;;;;;;;9.05;4.47;;;;;;;7.06;93.03;103934.88;4986875;28;20070;-79
2021/12/18 00:54:42;;;;;;;12.38;5.70;;;;;;;7.06;93.13;103943.00;4985388;28;20033;-75
2021/12/18 00:57:07;;;;;;;9.85;5.03;;;;;;;7.05;92.74;103945.72;4977844;28;20030;-75
2021/12/18 00:59:34;;;;;;;11.57;6.10;;;;;;;7.04;92.41;103938.50;4988329;28;20018;-77
2021/12/18 01:01:59;;;;;;;10.25;4.78;;;;;;;6.96;92.08;103922.31;4978693;28;20034;-75
2021/12/18 01:04:26;;;;;;;9.18;4.15;;;;;;;7.02;92.58;103934.91;4985367;28;20045;-76
2021/12/18 01:06:51;;;;;;;7.65;4.13;;;;;;;7.01;92.57;103925.91;4987126;28;20056;-79
2021/12/18 01:09:20;;;;;;;7.00;3.58;;;;;;;6.99;92.07;103925.00;4988108;28;20047;-76
2021/12/18 01:11:47;;;;;;;10.18;4.53;;;;;;;6.98;92.47;103931.31;4981018;28;20060;-76
2021/12/18 01:14:33;;;;;;;8.02;3.80;;;;;;;6.97;92.05;103920.53;4988191;28;20022;-75
2021/12/18 01:24:52;;;;;;;6.60;3.40;;;;;;;6.97;92.09;103921.41;4988565;28;20034;-76
2021/12/18 01:27:17;;;;;;;6.35;3.28;;;;;;;6.95;92.59;103917.84;4982701;28;20026;-79
2021/12/18 01:29:43;;;;;;;7.85;3.45;;;;;;;6.95;91.79;103920.53;4986892;28;20164;-76
2021/12/18 01:32:09;;;;;;;7.22;3.63;;;;;;;6.96;92.10;103926.84;4988056;28;20057;-79
2021/12/18 01:34:34;;;;;;;10.75;5.13;;;;;;;6.93;92.35;103926.84;4983847;28;20507;-76
2021/12/18 01:37:00;;;;;;;10.57;4.30;;;;;;;6.94;92.63;103928.66;4985350;28;20036;-78
2021/12/18 01:39:26;;;;;;;9.75;4.38;;;;;;;6.94;92.24;103929.53;4987868;28;20102;-78
2021/12/18 01:45:13;;;;;;;11.23;4.82;;;;;;;6.91;92.41;103926.88;4985363;28;20038;-76
2021/12/18 01:52:37;;;;;;;8.77;4.03;;;;;;;6.93;92.47;103945.81;4986725;28;20066;-76
2021/12/18 01:55:03;;;;;;;10.25;4.10;;;;;;;6.92;92.51;103944.00;4990858;28;20030;-79
2021/12/18 01:57:29;;;;;;;9.07;4.50;;;;;;;6.89;92.38;103943.09;4991671;28;20034;-76
2021/12/18 01:59:54;;;;;;;10.60;4.63;;;;;;;6.87;92.81;103935.94;4991267;28;20477;-79
2021/12/18 02:02:20;;;;;;;7.80;4.50;;;;;;;6.89;92.77;103953.94;4984704;28;20041;-75
2021/12/18 02:04:46;;;;;;;10.32;4.15;;;;;;;6.88;93.31;103946.72;4987446;28;20046;-76
2021/12/18 02:07:13;;;;;;;9.55;4.38;;;;;;;6.88;92.77;103951.25;4986162;28;20026;-74
2021/12/18 02:09:59;;;;;;;9.82;4.50;;;;;;;6.89;92.96;103956.63;4985362;28;20560;-75
2021/12/18 02:12:33;;;;;;;9.65;4.28;;;;;;;6.88;92.57;103946.72;4979738;28;20110;-77
2021/12/18 02:20:39;;;;;;;9.38;3.80;;;;;;;6.88;92.94;103944.03;4979165;28;20045;-75
2021/12/18 02:23:05;;;;;;;10.52;4.95;;;;;;;6.86;93.04;103940.44;4990164;28;20030;-78
2021/12/18 02:25:34;;;;;;;9.20;4.50;;;;;;;6.87;92.53;103942.25;4988296;28;20027;-75
2021/12/18 02:27:59;;;;;;;8.55;4.60;;;;;;;6.85;93.03;103941.38;4989866;28;20057;-75
2021/12/18 02:30:25;;;;;;;10.70;4.85;;;;;;;6.86;92.87;103939.56;4989309;28;20030;-76
2021/12/18 02:32:52;;;;;;;11.40;4.93;;;;;;;6.85;93.07;103927.84;4983019;28;20038;-75
2021/12/18 02:35:31;;;;;;;12.18;5.55;;;;;;;6.87;93.02;103930.50;4989208;28;20026;-74
2021/12/18 02:38:19;;;;;;;12.13;5.00;;;;;;;6.87;93.11;103928.72;4990052;28;20161;-76
2021/12/18 02:43:38;;;;;;;10.50;4.55;;;;;;;6.84;93.33;103922.41;4991879;28;20038;-74
2021/12/18 02:46:08;;;;;;;11.63;5.13;;;;;;;6.82;93.39;103925.13;4990845;28;20019;-74
2021/12/18 02:48:38;;;;;;;10.32;4.60;;;;;;;6.81;93.32;103920.66;4984044;28;20120;-74
2021/12/18 02:51:05;;;;;;;10.43;5.05;;;;;;;6.77;93.26;103921.56;4990502;28;20034;-79
2021/12/18 02:53:31;;;;;;;10.27;5.55;;;;;;;6.77;93.56;103921.56;4979887;28;20022;-75
2021/12/18 02:56:00;;;;;;;10.27;4.97;;;;;;;6.74;93.74;103916.16;4990704;28;20033;-76
2021/12/18 02:58:26;;;;;;;11.30;5.05;;;;;;;6.77;93.38;103907.16;4976231;28;20022;-78
2021/12/18 03:00:53;;;;;;;11.57;5.72;;;;;;;6.75;93.96;103904.44;4990201;28;20037;-76
2021/12/18 03:03:20;;;;;;;10.82;5.18;;;;;;;6.76;93.85;103903.53;4980396;28;20054;-77
2021/12/18 03:05:58;;;;;;;13.20;6.07;;;;;;;6.73;93.69;103906.25;4987549;28;20551;-75
2021/12/18 03:08:37;;;;;;;10.25;5.95;;;;;;;6.74;94.13;103912.56;4984999;28;20077;-75
2021/12/18 03:24:33;;;;;;;9.77;4.88;;;;;;;6.70;94.01;103899.97;4987840;28;20080;-78
2021/12/18 03:26:58;;;;;;;12.77;5.68;;;;;;;6.69;93.88;103898.19;4988636;28;20429;-73
2021/12/18 03:29:23;;;;;;;12.95;5.70;;;;;;;6.66;93.77;103890.97;4990615;28;20145;-74
2021/12/18 03:31:49;;;;;;;12.57;6.07;;;;;;;6.64;94.21;103890.09;4987293;28;20061;-75
2021/12/18 03:34:14;;;;;;;11.68;5.40;;;;;;;6.66;94.37;103890.97;4980219;28;20041;-78
2021/12/18 03:36:39;;;;;;;13.02;5.78;;;;;;;6.65;94.38;103892.78;4988369;28;20026;-75
2021/12/18 03:39:05;;;;;;;11.43;5.72;;;;;;;6.70;94.14;103894.56;4988897;28;20076;-78
2021/12/18 03:41:31;;;;;;;12.93;5.63;;;;;;;6.70;93.90;103900.88;4984927;28;20445;-78
2021/12/18 03:43:56;;;;;;;11.23;5.43;;;;;;;6.68;94.28;103897.28;4988112;28;20022;-75
2021/12/18 03:46:21;;;;;;;12.63;5.93;;;;;;;6.68;94.21;103894.56;4990523;28;20110;-76
2021/12/18 03:48:47;;;;;;;12.57;5.72;;;;;;;6.67;94.57;103894.56;4985559;28;20030;-74
2021/12/18 03:51:12;;;;;;;12.00;5.45;;;;;;;6.67;94.42;103902.69;4989649;28;20030;-76
2021/12/18 03:53:38;;;;;;;14.57;6.85;;;;;;;6.65;94.66;103903.59;4988623;28;20035;-76
2021/12/18 03:56:05;;;;;;;14.65;6.55;;;;;;;6.63;94.58;103900.03;4985402;28;20714;-76
2021/12/18 03:58:30;;;;;;;12.93;6.68;;;;;;;6.65;94.67;103902.69;4985736;28;20137;-75
2021/12/18 04:00:55;;;;;;;12.40;5.78;;;;;;;6.65;94.67;103900.00;4987470;28;20105;-75
2021/12/18 04:03:21;;;;;;;13.02;5.95;;;;;;;6.64;94.53;103900.91;4987571;28;20501;-75
2021/12/18 04:05:46;;;;;;;9.57;5.10;;;;;;;6.64;94.73;103904.50;4982125;28;20398;-74
2021/12/18 04:08:11;;;;;;;12.57;5.47;;;;;;;6.66;94.71;103907.19;4983816;28;20088;-78
2021/12/18 04:10:39;;;;;;;14.82;6.10;;;;;;;6.65;94.83;103908.13;4988225;28;20030;-74
2021/12/18 04:13:06;;;;;;;12.10;6.05;;;;;;;6.62;95.05;103902.72;4978469;28;20405;-79
2021/12/18 04:15:32;;;;;;;13.20;5.93;;;;;;;6.64;94.66;103903.63;4986169;28;20069;-78
2021/12/18 04:17:57;;;;;;;13.52;5.95;;;;;;;6.60;95.08;103897.31;4986946;28;20030;-75
2021/12/18 04:20:24;;;;;;;15.15;6.32;;;;;;;6.62;95.08;103900.94;4989797;28;20026;-74
2021/12/18 04:22:49;;;;;;;15.20;5.95;;;;;;;6.61;95.18;103899.13;4989642;28;20474;-74
2021/12/18 04:25:14;;;;;;;12.13;6.00;;;;;;;6.60;95.00;103899.13;4988089;28;20053;-73
2021/12/18 04:27:40;;;;;;;14.57;5.78;;;;;;;6.60;95.24;103904.53;4989613;28;20036;-76
2021/12/18 04:30:05;;;;;;;14.95;5.85;;;;;;;6.59;95.03;103897.34;4989039;28;20021;-73
2021/12/18 04:32:31;;;;;;;14.35;6.18;;;;;;;6.52;94.96;103888.34;4986174;28;20082;-74
2021/12/18 04:34:56;;;;;;;12.82;5.50;;;;;;;6.60;95.20;103907.25;4987475;28;20018;-74
2021/12/18 04:37:23;;;;;;;13.68;6.93;;;;;;;6.58;95.01;103904.56;4989718;28;20030;-74
2021/12/18 04:39:49;;;;;;;12.55;5.50;;;;;;;6.58;95.43;103901.88;4980503;28;20185;-76
2021/12/18 04:42:14;;;;;;;14.77;6.18;;;;;;;6.59;95.02;103905.47;4988796;28;20084;-79
2021/12/18 04:44:39;;;;;;;14.73;6.72;;;;;;;6.58;94.94;103909.09;4988860;28;20058;-79
2021/12/18 04:47:05;;;;;;;15.27;6.57;;;;;;;6.58;94.94;103909.09;4988728;28;20034;-76
2021/12/18 04:49:30;;;;;;;14.60;6.03;;;;;;;6.59;95.27;103908.16;4978435;28;20105;-74
2021/12/18 04:51:55;;;;;;;17.17;6.40;;;;;;;6.58;95.21;103907.28;4986289;28;20022;-75
2021/12/18 04:54:21;;;;;;;16.88;7.05;;;;;;;6.61;95.59;103911.75;4987467;28;20109;-75
2021/12/18 04:56:46;;;;;;;16.30;6.60;;;;;;;6.59;95.67;103910.88;4988979;28;20033;-74
2021/12/18 04:59:12;;;;;;;15.23;6.70;;;;;;;6.60;95.51;103915.38;4987678;28;20033;-76
2021/12/18 05:01:39;;;;;;;17.55;7.63;;;;;;;6.56;95.51;103908.19;4984548;28;20035;-74
2021/12/18 05:04:09;;;;;;;13.63;6.18;;;;;;;6.61;95.62;103926.16;4983412;28;20096;-75
2021/12/18 05:06:36;;;;;;;19.15;7.50;;;;;;;6.59;95.55;103921.69;4988950;28;20474;-78
2021/12/18 05:09:04;;;;;;;17.42;6.93;;;;;;;6.60;95.75;103923.47;4989288;28;20042;-74
2021/12/18 05:11:29;;;;;;;18.58;7.63;;;;;;;6.59;95.53;103921.69;4975155;28;20030;-76
2021/12/18 05:13:54;;;;;;;16.55;6.32;;;;;;;6.57;95.80;103918.97;4983307;28;20022;-75
2021/12/18 05:16:21;;;;;;;19.45;8.05;;;;;;;6.56;95.84;103929.81;4987225;28;20525;-74
2021/12/18 05:18:46;;;;;;;19.92;7.55;;;;;;;6.56;95.99;103935.22;4983222;28;20037;-75
2021/12/18 05:21:12;;;;;;;20.35;8.38;;;;;;;6.54;96.08;103924.44;4988192;28;20030;-76
2021/12/18 05:23:37;;;;;;;20.13;7.25;;;;;;;6.54;96.21;103912.72;4988903;28;20026;-75
2021/12/18 05:26:02;;;;;;;20.15;7.55;;;;;;;6.54;96.02;103915.41;4986604;28;20505;-80
2021/12/18 05:28:28;;;;;;;14.27;6.93;;;;;;;6.55;96.34;103918.09;4980584;28;20034;-75
2021/12/18 05:30:53;;;;;;;18.63;7.78;;;;;;;6.56;95.89;103930.72;4987152;28;20054;-75
2021/12/18 05:33:18;;;;;;;19.23;8.07;;;;;;;6.60;96.35;103920.78;4982836;28;20409;-73
2021/12/18 05:35:44;;;;;;;16.77;6.82;;;;;;;6.59;96.34;103929.81;4972481;28;20115;-75
2021/12/18 05:38:09;;;;;;;20.95;7.63;;;;;;;6.59;96.33;103930.69;4983431;28;20041;-79
2021/12/18 05:40:37;;;;;;;17.35;7.72;;;;;;;6.60;96.44;103923.47;4980437;28;20022;-74
2021/12/18 05:43:03;;;;;;;17.80;8.55;;;;;;;6.58;95.87;103933.44;4978843;28;20033;-76
2021/12/18 05:45:29;;;;;;;14.95;6.35;;;;;;;6.57;96.51;103935.19;4980307;28;20860;-74
2021/12/18 05:47:54;;;;;;;16.98;7.50;;;;;;;6.55;96.35;103925.31;4984740;28;20105;-74
2021/12/18 05:50:21;;;;;;;15.57;6.38;;;;;;;6.55;95.98;103922.63;4981683;28;20746;-74
2021/12/18 05:52:48;;;;;;;14.00;6.00;;;;;;;6.54;96.07;103918.13;4986002;28;20033;-79
2021/12/18 05:55:15;;;;;;;16.45;6.15;;;;;;;6.52;96.03;103917.22;4985871;28;20057;-78
2021/12/18 05:57:41;;;;;;;19.20;6.38;;;;;;;6.54;96.24;103927.13;4980482;28;20493;-79
2021/12/18 06:00:10;;;;;;;15.25;6.95;;;;;;;6.53;96.58;103924.44;4988019;28;20046;-74
2021/12/18 06:02:35;;;;;;;18.42;7.47;;;;;;;6.52;96.44;103923.50;4981293;28;20044;-76
2021/12/18 06:05:01;;;;;;;14.93;6.63;;;;;;;6.54;96.49;103920.81;4980130;28;20502;-75
2021/12/18 06:07:32;;;;;;;15.38;6.22;;;;;;;6.55;96.68;103928.03;4986532;28;20037;-80
2021/12/18 06:09:58;;;;;;;16.00;6.35;;;;;;;6.57;96.42;103927.09;4985749;28;20057;-76
2021/12/18 06:12:24;;;;;;;19.45;7.30;;;;;;;6.57;96.59;103924.38;4977092;28;20031;-79
2021/12/18 06:14:50;;;;;;;22.65;7.65;;;;;;;6.58;96.59;103919.91;4985731;28;20467;-75
2021/12/18 06:17:15;;;;;;;19.88;7.28;;;;;;;6.57;96.43;103912.66;4972342;28;20041;-76
2021/12/18 06:19:41;;;;;;;13.75;6.03;;;;;;;6.57;96.24;103927.09;4983893;28;20133;-75
2021/12/18 06:22:06;;;;;;;16.83;7.50;;;;;;;6.55;96.39;103909.09;4987885;28;20129;-79
2021/12/18 06:24:31;;;;;;;20.73;6.38;;;;;;;6.57;96.44;103912.66;4984691;28;20022;-77
2021/12/18 06:26:57;;;;;;;16.40;6.85;;;;;;;6.55;96.94;103914.50;4978352;28;20032;-75
2021/12/18 06:29:22;;;;;;;19.38;6.93;;;;;;;6.54;96.38;103905.50;4986225;28;20081;-74
2021/12/18 06:31:49;;;;;;;15.68;7.03;;;;;;;6.59;96.49;103916.28;4986202;28;20108;-75
2021/12/18 06:34:15;;;;;;;17.40;6.50;;;;;;;6.55;96.45;103909.09;4977560;28;20030;-73
2021/12/18 06:36:41;;;;;;;19.52;6.47;;;;;;;6.57;96.57;103907.25;4985700;28;20018;-73
2021/12/18 06:39:06;;;;;;;14.00;6.20;;;;;;;6.57;96.53;103908.16;4981136;28;20030;-79
2021/12/18 06:41:32;;;;;;;18.73;6.32;;;;;;;6.56;96.50;103905.47;4986280;28;20389;-73
2021/12/18 06:43:57;;;;;;;17.20;7.97;;;;;;;6.58;96.48;103914.50;4983680;28;20433;-75
2021/12/18 06:46:23;;;;;;;18.73;6.82;;;;;;;6.59;96.59;103911.75;4991529;28;20383;-73
2021/12/18 06:48:48;;;;;;;16.92;6.38;;;;;;;6.60;96.51;103916.25;4981312;28;20132;-75
2021/12/18 06:51:19;;;;;;;18.95;7.57;;;;;;;6.60;96.60;103913.56;4986408;28;20056;-75
2021/12/18 06:53:45;;;;;;;15.50;6.28;;;;;;;6.59;96.64;103916.28;4985299;28;20034;-75
2021/12/18 06:56:10;;;;;;;16.95;7.05;;;;;;;6.59;96.62;103908.16;4987606;28;20038;-74
2021/12/18 06:58:36;;;;;;;16.60;7.07;;;;;;;6.60;96.81;103913.56;4983497;28;20030;-75
2021/12/18 07:01:01;;;;;;;18.13;6.57;;;;;;;6.59;96.78;103909.06;4988612;28;20026;-76
2021/12/18 07:03:26;;;;;;;21.90;7.22;;;;;;;6.58;96.86;103907.28;4980962;28;20051;-74
2021/12/18 07:05:52;;;;;;;18.67;7.32;;;;;;;6.59;96.46;103906.34;4977918;28;20035;-76
2021/12/18 07:08:17;;;;;;;20.40;7.55;;;;;;;6.59;96.55;103906.34;4984951;28;20035;-75
2021/12/18 07:10:43;;;;;;;18.75;7.30;;;;;;;6.61;97.14;103918.03;4990511;28;20504;-75
2021/12/18 07:13:09;;;;;;;18.17;6.72;;;;;;;6.61;96.49;103909.94;4988170;28;20041;-79
2021/12/18 07:15:35;;;;;;;19.23;6.97;;;;;;;6.62;96.81;103910.81;4987255;28;20493;-76
2021/12/18 07:18:00;;;;;;;17.85;6.95;;;;;;;6.60;97.06;103913.56;4987675;28;20065;-75
2021/12/18 07:20:27;;;;;;;15.02;5.80;;;;;;;6.60;96.66;103905.44;4989512;28;20030;-75
2021/12/18 07:22:52;;;;;;;19.42;7.38;;;;;;;6.60;97.00;103907.25;4989983;28;20637;-79
2021/12/18 07:25:18;;;;;;;15.00;4.97;;;;;;;6.60;96.87;103909.97;4987423;28;20153;-80
2021/12/18 07:27:43;;;;;;;16.30;6.15;;;;;;;6.59;96.91;103903.66;4988354;28;20018;-76
2021/12/18 07:30:10;;;;;;;17.60;5.88;;;;;;;6.58;96.73;103909.97;4987863;28;20165;-75
2021/12/18 07:32:35;;;;;;;19.08;5.80;;;;;;;6.58;96.76;103903.66;4988240;28;20026;-75
2021/12/18 07:35:00;;;;;;;18.65;6.35;;;;;;;6.60;96.94;103912.66;4987190;28;20488;-75
2021/12/18 07:37:26;;;;;;;14.85;5.65;;;;;;;6.61;96.58;103919.84;4988732;28;20049;-79
2021/12/18 07:39:52;;;;;;;13.15;5.63;;;;;;;6.61;96.99;103917.16;4988387;28;20480;-74
2021/12/18 07:42:18;;;;;;;16.58;5.80;;;;;;;6.61;96.56;103918.03;4988886;28;20030;-74
2021/12/18 07:44:43;;;;;;;15.85;5.45;;;;;;;6.59;96.97;103911.75;4988695;28;20029;-74
2021/12/18 07:47:08;;;;;;;14.48;5.53;;;;;;;6.61;97.02;103917.16;5003970;28;20500;-76
2021/12/18 07:49:33;;;;;;;12.15;4.47;;;;;;;6.59;96.77;103928.00;4979232;28;20155;-74
2021/12/18 07:52:03;;;;;;;16.40;4.75;;;;;;;6.60;97.10;103932.50;4986456;28;20057;-76
2021/12/18 07:54:28;;;;;;;10.57;4.20;;;;;;;6.58;96.80;103923.50;4983536;28;20033;-75
2021/12/18 07:56:53;;;;;;;13.00;4.88;;;;;;;6.58;97.10;103923.50;5002593;28;20030;-78
2021/12/18 07:59:18;;;;;;;14.25;5.18;;;;;;;6.59;96.56;103919.88;4999740;28;20045;-75
2021/12/18 08:01:44;;;;;;;11.82;4.53;;;;;;;6.59;96.87;103929.81;4987986;28;20026;-76
2021/12/18 08:04:09;;;;;;;12.50;4.10;;;;;;;6.56;96.94;103925.28;4978651;28;20066;-77
2021/12/18 08:06:35;;;;;;;12.88;4.30;;;;;;;6.58;96.86;103925.31;4986493;28;20406;-76
2021/12/18 08:09:00;;;;;;;14.48;4.88;;;;;;;6.56;96.67;103928.00;4979306;28;20038;-74
2021/12/18 08:11:25;;;;;;;12.77;4.65;;;;;;;6.57;96.90;103918.97;4988494;28;20022;-76
2021/12/18 08:13:50;;;;;;;11.48;4.68;;;;;;;6.58;97.30;103920.78;4984417;28;20534;-79
2021/12/18 08:16:16;;;;;;;11.85;4.43;;;;;;;6.58;96.81;103918.09;4985245;28;20061;-75
2021/12/18 08:18:41;;;;;;;11.18;3.85;;;;;;;6.58;96.73;103920.78;4973129;28;20030;-78
2021/12/18 08:21:06;;;;;;;10.57;3.92;;;;;;;6.61;97.07;103931.56;4989345;28;20033;-80
2021/12/18 08:23:32;;;;;;;10.45;3.25;;;;;;;6.61;97.01;103926.16;4982818;28;20030;-74
2021/12/18 08:25:57;;;;;;;10.65;4.18;;;;;;;6.65;97.13;103925.25;4986485;28;20367;-76
2021/12/18 08:28:22;;;;;;;12.20;4.03;;;;;;;6.64;96.85;103926.16;4988226;28;20138;-74
2021/12/18 08:30:48;;;;;;;8.70;4.10;;;;;;;6.67;96.57;103921.63;4986150;28;20517;-74
2021/12/18 08:33:13;;;;;;;11.35;4.97;;;;;;;6.64;96.68;103912.63;4980601;28;20038;-75
2021/12/18 08:35:38;;;;;;;13.50;3.90;;;;;;;6.69;96.62;103919.81;4986669;28;20101;-73
2021/12/18 08:38:05;;;;;;;11.07;5.20;;;;;;;6.70;96.80;103918.91;4989232;28;20034;-75
2021/12/18 08:40:31;;;;;;;8.57;3.58;;;;;;;6.72;97.05;103911.69;4991138;28;20038;-76
2021/12/18 08:42:57;;;;;;;11.93;4.35;;;;;;;6.74;96.48;103917.97;4999231;28;20049;-76
2021/12/18 08:45:22;;;;;;;12.65;4.28;;;;;;;6.75;96.50;103923.38;4980578;28;20030;-75
2021/12/18 08:47:48;;;;;;;11.68;4.35;;;;;;;6.76;96.81;103921.56;4976654;28;20496;-75
2021/12/18 08:50:17;;;;;;;14.57;4.05;;;;;;;6.76;96.82;103922.50;4983808;28;20100;-74
2021/12/18 08:52:43;;;;;;;12.30;5.15;;;;;;;6.74;96.25;103924.28;4982302;28;20037;-75
2021/12/18 08:55:10;;;;;;;17.48;5.05;;;;;;;6.71;96.59;103927.00;4984900;28;20728;-76
2021/12/18 08:57:36;;;;;;;13.60;4.50;;;;;;;6.70;96.29;103921.63;4987674;28;20078;-73
2021/12/18 09:00:03;;;;;;;10.88;4.60;;;;;;;6.72;96.51;103926.13;4984251;28;20026;-80
2021/12/18 09:02:29;;;;;;;11.25;4.35;;;;;;;6.72;96.61;103927.94;4985740;28;20663;-76
2021/12/18 09:04:55;;;;;;;12.18;3.97;;;;;;;6.74;96.46;103928.81;4984468;28;20549;-75
2021/12/18 09:07:20;;;;;;;7.47;3.75;;;;;;;6.75;96.27;103925.19;4998690;28;20034;-75
2021/12/18 09:09:45;;;;;;;6.75;2.88;;;;;;;6.74;95.88;103918.88;4983951;28;20529;-80
2021/12/18 09:12:12;;;;;;;5.65;2.40;;;;;;;6.78;96.10;103922.47;4981337;28;20029;-79
2021/12/18 09:14:39;;;;;;;8.05;2.95;;;;;;;6.81;96.29;103927.88;4985723;28;20053;-79
2021/12/18 09:17:05;;;;;;;10.27;3.55;;;;;;;6.83;96.18;103921.50;4985818;28;20030;-73
2021/12/18 09:19:30;;;;;;;9.02;3.72;;;;;;;6.86;95.96;103924.22;5001126;28;20393;-74
2021/12/18 09:21:55;;;;;;;7.43;2.85;;;;;;;6.89;96.07;103924.16;4986141;28;20066;-76
2021/12/18 09:24:21;;;;;;;8.90;3.25;;;;;;;6.92;96.24;103928.66;4985996;28;20033;-76
2021/12/18 09:26:47;;;;;;;8.55;3.55;;;;;;;6.92;96.21;103928.66;4983740;28;20525;-75
2021/12/18 09:29:12;;;;;;;8.57;2.75;;;;;;;6.95;96.06;103930.44;4986878;28;20026;-79
2021/12/18 09:31:38;;;;;;;10.60;3.30;;;;;;;6.92;95.52;103927.78;4986706;28;20026;-73
2021/12/18 09:34:03;;;;;;;8.48;3.42;;;;;;;6.87;96.21;103920.59;4985069;28;20034;-79
2021/12/18 09:36:28;;;;;;;7.82;3.13;;;;;;;6.85;95.90;103917.00;4974699;28;20034;-79
2021/12/18 09:38:54;;;;;;;5.78;2.33;;;;;;;6.83;95.78;103921.50;4979888;28;20034;-79
2021/12/18 09:41:19;;;;;;;6.60;3.20;;;;;;;6.82;95.83;103929.66;4982138;28;20041;-75
2021/12/18 09:43:45;;;;;;;7.68;2.90;;;;;;;6.79;96.06;103922.44;4982295;28;20084;-75
2021/12/18 09:46:13;;;;;;;6.95;2.47;;;;;;;6.80;95.90;103926.94;4987313;28;20040;-74
2021/12/18 09:48:41;;;;;;;7.30;2.90;;;;;;;6.82;95.86;103924.25;4983705;28;20446;-75
2021/12/18 09:51:12;;;;;;;6.80;2.53;;;;;;;6.81;96.29;103917.94;4983540;28;20023;-75
2021/12/18 09:53:38;;;;;;;5.85;2.03;;;;;;;6.81;96.07;103922.44;4983924;28;20118;-78
2021/12/18 09:56:05;;;;;;;7.60;2.70;;;;;;;6.87;95.79;103926.00;4979880;28;20101;-75
2021/12/18 09:58:31;;;;;;;4.72;1.90;;;;;;;6.89;96.05;103918.75;4985419;28;20032;-74
2021/12/18 10:00:56;;;;;;;6.22;2.47;;;;;;;6.88;95.81;103905.25;4998445;28;20049;-73
2021/12/18 10:03:38;;;;;;;4.40;2.03;;;;;;;6.88;95.50;103916.06;4976607;28;20035;-74
2021/12/18 10:06:39;;;;;;;3.92;1.90;;;;;;;6.90;95.21;103912.47;4976871;28;20030;-74
2021/12/18 10:09:25;;;;;;;3.47;1.77;;;;;;;6.96;95.19;103913.31;4985137;28;20022;-75
2021/12/18 10:11:53;;;;;;;3.33;1.73;;;;;;;6.89;93.86;103897.09;4971178;28;20046;-73
2021/12/18 10:14:31;;;;;;;2.38;1.70;;;;;;;6.88;94.83;103906.13;4976025;28;20426;-75
2021/12/18 10:16:56;;;;;;;3.53;1.65;;;;;;;6.86;94.28;103905.28;4981848;28;20073;-75
2021/12/18 10:19:38;;;;;;;5.72;2.38;;;;;;;6.88;94.89;103906.13;4988641;28;20038;-73
2021/12/18 10:22:07;;;;;;;4.18;1.67;;;;;;;6.95;94.31;103909.72;4982017;28;20030;-78
2021/12/18 10:24:35;;;;;;;4.18;2.10;;;;;;;6.97;94.40;103904.28;4991443;28;20390;-79
2021/12/18 10:27:17;;;;;;;3.58;1.40;;;;;;;7.02;94.62;103897.91;4983732;28;20019;-76
2021/12/18 10:29:42;;;;;;;2.53;1.50;;;;;;;7.05;93.74;103899.69;4989862;28;20037;-78
2021/12/18 10:32:11;;;;;;;3.33;1.65;;;;;;;7.01;93.44;103896.13;4983694;28;20018;-75
2021/12/18 10:34:38;;;;;;;3.13;1.70;;;;;;;7.00;93.32;103902.44;4988643;28;20026;-74
2021/12/18 10:37:24;;;;;;;2.72;1.35;;;;;;;6.99;93.64;103888.91;4990678;28;20117;-79
2021/12/18 10:39:58;;;;;;;4.57;1.92;;;;;;;6.98;93.40;103896.13;4989182;28;20441;-74
2021/12/18 10:42:34;;;;;;;3.47;1.73;;;;;;;7.04;94.06;103892.47;4989886;28;20449;-75
2021/12/18 10:44:59;;;;;;;4.90;2.13;;;;;;;7.04;93.61;103882.56;4989297;28;20039;-79
2021/12/18 10:47:26;;;;;;;4.67;2.60;;;;;;;7.04;94.14;103887.97;4989111;28;20026;-75
2021/12/18 10:49:52;;;;;;;5.80;3.08;;;;;;;7.03;93.91;103890.69;4982579;28;20289;-79
2021/12/18 10:52:17;;;;;;;6.00;3.20;;;;;;;7.00;94.59;103879.91;4989157;28;20516;-75
2021/12/18 10:54:42;;;;;;;7.40;3.22;;;;;;;6.95;94.52;103882.66;4989373;28;20022;-75
2021/12/18 10:57:20;;;;;;;5.85;2.88;;;;;;;7.00;94.82;103872.69;4985985;28;20050;-75
2021/12/18 10:59:48;;;;;;;8.40;3.42;;;;;;;7.00;95.03;103885.31;4971988;28;20030;-79
2021/12/18 11:02:15;;;;;;;8.52;3.63;;;;;;;6.94;94.84;103886.25;4981716;28;20072;-73
2021/12/18 11:04:42;;;;;;;9.85;4.03;;;;;;;6.89;95.54;103882.69;4982397;28;20057;-74
2021/12/18 11:07:22;;;;;;;8.70;4.07;;;;;;;6.88;95.71;103886.31;4983966;28;20478;-75
2021/12/18 11:15:16;;;;;;;14.60;4.22;;;;;;;6.76;95.19;103880.97;4986842;28;20646;-73
2021/12/18 11:17:41;;;;;;;8.25;4.18;;;;;;;6.76;95.81;103889.09;4983655;28;20390;-75
2021/12/18 11:20:07;;;;;;;5.43;3.13;;;;;;;6.73;95.24;103879.22;4987319;28;20024;-75
2021/12/18 11:22:33;;;;;;;9.18;3.38;;;;;;;6.73;95.33;103890.03;4987985;28;20030;-73
2021/12/18 11:25:10;;;;;;;5.60;2.55;;;;;;;6.68;94.88;103883.75;4984111;28;20030;-75
2021/12/18 11:27:37;;;;;;;6.03;2.85;;;;;;;6.67;95.16;103883.75;4984440;28;20030;-75
2021/12/18 11:30:15;;;;;;;5.25;2.22;;;;;;;6.68;95.23;103880.16;4989398;28;20466;-74
2021/12/18 11:32:44;;;;;;;9.32;3.08;;;;;;;6.69;95.23;103882.84;4984914;28;20038;-75
2021/12/18 11:35:14;;;;;;;5.95;2.88;;;;;;;6.67;95.08;103871.16;4987905;28;20018;-75
2021/12/18 11:37:44;;;;;;;6.22;3.22;;;;;;;6.70;95.41;103879.22;4985671;28;20022;-74
2021/12/18 11:40:14;;;;;;;5.40;3.53;;;;;;;6.67;95.22;103868.44;4984248;28;20034;-75
2021/12/18 11:42:39;;;;;;;5.20;3.10;;;;;;;6.70;95.00;103872.91;4989573;28;20661;-75
2021/12/18 11:45:06;;;;;;;7.93;3.40;;;;;;;6.71;95.25;103875.59;4985861;28;20026;-75
2021/12/18 11:47:40;;;;;;;7.55;3.70;;;;;;;6.72;95.47;103874.72;4989524;28;20030;-76
2021/12/18 11:50:18;;;;;;;8.82;3.15;;;;;;;6.73;95.65;103878.31;4978837;28;20026;-79
2021/12/18 11:52:54;;;;;;;7.72;3.47;;;;;;;6.69;95.58;103874.72;4984201;28;20034;-73
2021/12/18 11:55:20;;;;;;;12.48;3.85;;;;;;;6.69;95.19;103868.41;4987735;28;20026;-75
2021/12/18 11:57:48;;;;;;;7.57;3.47;;;;;;;6.62;94.96;103868.47;4984586;28;20439;-78
2021/12/18 12:00:23;;;;;;;15.32;4.35;;;;;;;6.58;95.31;103858.59;4987116;28;20462;-75
2021/12/18 12:02:52;;;;;;;11.32;4.28;;;;;;;6.56;95.61;103857.69;4982828;28;20045;-79
2021/12/18 12:05:20;;;;;;;7.55;4.10;;;;;;;6.54;96.06;103850.50;4987775;28;20088;-74
2021/12/18 12:07:46;;;;;;;8.43;4.47;;;;;;;6.53;95.80;103852.31;4986037;28;20030;-75
2021/12/18 12:10:35;;;;;;;9.88;6.30;;;;;;;6.52;95.39;103855.00;4984898;28;20053;-75
2021/12/18 12:13:00;;;;;;;8.90;4.75;;;;;;;6.47;95.64;103846.91;4988914;28;20045;-75